Time;durP1;ratioP1;P1;durP2;ratioP2;P2;SDS_P1;SDS_P2;PMS_P1;PMS_P2;Temp;Humidity;BMP_temperature;BMP_pressure;BME280_temperature;BME280_humidity;BME280_pressure;Samples;Min_cycle;Max_cycle;Signal;HPM_P1;HPM_P2
2023/08/08 00:01:42;;;;;;;2.20;1.30;;;;;;;;;;5013783;28;20176;-79
2023/08/08 00:04:48;;;;;;;2.77;1.10;;;;;;;;;;5025459;28;20172;-79
2023/08/08 00:07:53;;;;;;;1.77;1.10;;;;;;;;;;5038223;22;20232;-85
2023/08/08 00:10:57;;;;;;;2.23;1.10;;;;;;;;;;5003257;28;20169;-85
2023/08/08 00:14:02;;;;;;;1.77;1.10;;;;;;;;;;5004335;28;20176;-85
2023/08/08 00:17:06;;;;;;;1.30;1.20;;;;;;;;;;5039100;28;20184;-86
2023/08/08 00:20:10;;;;;;;2.50;1.60;;;;;;;;;;4995466;28;20225;-83
2023/08/08 00:23:15;;;;;;;3.80;1.10;;;;;;;;;;4995471;28;20197;-82
2023/08/08 00:26:19;;;;;;;1.70;1.30;;;;;;;;;;5006534;28;20182;-85
2023/08/08 00:29:23;;;;;;;1.70;1.60;;;;;;;;;;4984110;28;20213;-83
2023/08/08 00:32:27;;;;;;;1.73;1.13;;;;;;;;;;4995803;28;20186;-83
2023/08/08 00:35:32;;;;;;;1.30;1.07;;;;;;;;;;4984768;28;20189;-82
2023/08/08 00:38:36;;;;;;;1.30;1.00;;;;;;;;;;4994840;28;20217;-85
2023/08/08 00:41:40;;;;;;;1.60;1.33;;;;;;;;;;4994667;28;20185;-85
2023/08/08 00:44:44;;;;;;;1.17;1.03;;;;;;;;;;4983798;28;20197;-85
2023/08/08 00:47:49;;;;;;;1.83;1.00;;;;;;;;;;5005478;28;20216;-82
2023/08/08 00:50:53;;;;;;;1.20;0.93;;;;;;;;;;4984099;28;20517;-82
2023/08/08 00:53:58;;;;;;;3.47;1.13;;;;;;;;;;5006692;28;20181;-82
2023/08/08 00:57:02;;;;;;;2.17;1.07;;;;;;;;;;4994668;28;20182;-85
2023/08/08 01:00:09;;;;;;;1.47;1.20;;;;;;;;;;4995132;28;20205;-82
2023/08/08 01:03:14;;;;;;;2.30;1.40;;;;;;;;;;4984124;28;20182;-83
2023/08/08 01:06:52;;;;;;;3.10;1.10;;;;;;;;;;4994411;28;20185;-83
2023/08/08 01:10:07;;;;;;;2.80;0.90;;;;;;;;;;5000093;28;20173;-85
2023/08/08 01:13:19;;;;;;;3.83;1.23;;;;;;;;;;4996573;28;20540;-82
2023/08/08 01:16:26;;;;;;;1.20;0.93;;;;;;;;;;4998002;28;20190;-82
2023/08/08 01:19:32;;;;;;;1.90;1.23;;;;;;;;;;4997482;28;20221;-82
2023/08/08 01:22:40;;;;;;;2.10;1.00;;;;;;;;;;4997801;28;20174;-82
2023/08/08 01:25:45;;;;;;;1.40;0.90;;;;;;;;;;5021243;28;20186;-83
2023/08/08 01:28:53;;;;;;;1.47;1.07;;;;;;;;;;4997800;28;20224;-82
2023/08/08 01:31:57;;;;;;;1.93;1.20;;;;;;;;;;4997580;28;20178;-83
2023/08/08 01:35:01;;;;;;;2.00;1.07;;;;;;;;;;4997504;28;20181;-84
2023/08/08 01:38:14;;;;;;;2.00;1.20;;;;;;;;;;4997273;28;20213;-82
2023/08/08 01:41:18;;;;;;;2.20;0.90;;;;;;;;;;4997363;28;20217;-83
2023/08/08 01:44:26;;;;;;;2.23;1.10;;;;;;;;;;4986212;28;20185;-83
2023/08/08 01:47:30;;;;;;;1.57;1.07;;;;;;;;;;4997157;28;20178;-83
2023/08/08 01:50:35;;;;;;;2.53;1.30;;;;;;;;;;4997370;28;20169;-81
2023/08/08 01:53:39;;;;;;;2.73;1.13;;;;;;;;;;5011529;28;20629;-82
2023/08/08 01:56:44;;;;;;;4.17;1.03;;;;;;;;;;4988213;28;20186;-84
2023/08/08 01:59:48;;;;;;;1.87;1.10;;;;;;;;;;4999201;28;20205;-82
2023/08/08 02:02:52;;;;;;;1.47;0.90;;;;;;;;;;4998469;28;20537;-82
2023/08/08 02:05:56;;;;;;;1.10;1.00;;;;;;;;;;4999001;28;20201;-82
2023/08/08 02:09:00;;;;;;;1.67;1.43;;;;;;;;;;4998891;28;20229;-82
2023/08/08 02:12:04;;;;;;;1.37;1.27;;;;;;;;;;4998539;28;20621;-82
2023/08/08 02:15:10;;;;;;;1.60;1.10;;;;;;;;;;5010007;28;20177;-82
2023/08/08 02:18:15;;;;;;;1.40;1.10;;;;;;;;;;4998192;28;20213;-81
2023/08/08 02:21:19;;;;;;;1.43;1.03;;;;;;;;;;5010134;28;20206;-82
2023/08/08 02:24:23;;;;;;;2.40;1.10;;;;;;;;;;4998346;28;20173;-82
2023/08/08 02:27:27;;;;;;;2.70;1.10;;;;;;;;;;5009043;28;20178;-81
2023/08/08 02:30:32;;;;;;;1.43;1.30;;;;;;;;;;4998721;28;20174;-82
2023/08/08 02:33:36;;;;;;;3.33;1.00;;;;;;;;;;5009720;28;20178;-81
2023/08/08 02:36:40;;;;;;;1.63;1.00;;;;;;;;;;5009940;28;20182;-82
2023/08/08 02:39:45;;;;;;;1.20;0.90;;;;;;;;;;4986817;28;20214;-82
2023/08/08 02:42:49;;;;;;;1.80;1.20;;;;;;;;;;5009546;28;20629;-82
2023/08/08 02:45:53;;;;;;;1.87;1.20;;;;;;;;;;4998185;28;20177;-82
2023/08/08 02:48:58;;;;;;;1.07;0.93;;;;;;;;;;4998276;28;20217;-84
2023/08/08 02:52:02;;;;;;;1.90;1.00;;;;;;;;;;4987395;28;20641;-84
2023/08/08 02:55:10;;;;;;;3.27;1.27;;;;;;;;;;4997636;28;20181;-82
2023/08/08 02:58:15;;;;;;;5.03;1.10;;;;;;;;;;4998373;28;20217;-82
2023/08/08 03:01:21;;;;;;;1.73;1.10;;;;;;;;;;4997694;28;20205;-82
2023/08/08 03:04:26;;;;;;;1.00;0.90;;;;;;;;;;4997744;28;20178;-82
2023/08/08 03:07:30;;;;;;;3.47;1.20;;;;;;;;;;4997828;28;20205;-82
2023/08/08 03:10:34;;;;;;;1.90;1.07;;;;;;;;;;4997738;28;20178;-82
2023/08/08 03:13:39;;;;;;;1.23;1.10;;;;;;;;;;4997951;28;20545;-82
2023/08/08 03:16:43;;;;;;;1.73;1.00;;;;;;;;;;5007720;28;20185;-82
2023/08/08 03:19:48;;;;;;;2.43;0.90;;;;;;;;;;4985483;28;20213;-82
2023/08/08 03:22:53;;;;;;;1.20;0.90;;;;;;;;;;4996639;28;20181;-81
2023/08/08 03:25:57;;;;;;;1.43;1.17;;;;;;;;;;4997117;28;20197;-82
2023/08/08 03:29:03;;;;;;;1.33;1.10;;;;;;;;;;4985731;28;20217;-82
2023/08/08 03:32:15;;;;;;;1.77;1.10;;;;;;;;;;4987462;28;20178;-82
2023/08/08 03:35:19;;;;;;;3.10;1.37;;;;;;;;;;4996419;28;20181;-82
2023/08/08 03:38:25;;;;;;;1.67;1.00;;;;;;;;;;4997121;28;20213;-81
2023/08/08 03:41:29;;;;;;;1.33;1.10;;;;;;;;;;4996408;28;20220;-82
2023/08/08 03:44:33;;;;;;;1.30;0.93;;;;;;;;;;4997236;28;20201;-82
2023/08/08 03:47:38;;;;;;;2.80;1.07;;;;;;;;;;5008384;28;20212;-82
2023/08/08 03:50:42;;;;;;;3.67;1.10;;;;;;;;;;4985045;28;20178;-82
2023/08/08 03:53:47;;;;;;;1.47;0.87;;;;;;;;;;4996700;28;20182;-82
2023/08/08 03:56:51;;;;;;;1.90;1.20;;;;;;;;;;4985367;28;20205;-82
2023/08/08 03:59:57;;;;;;;4.93;1.30;;;;;;;;;;4996454;28;20209;-82
2023/08/08 04:03:01;;;;;;;1.53;1.10;;;;;;;;;;4984977;28;20181;-82
2023/08/08 04:06:05;;;;;;;1.60;0.90;;;;;;;;;;4996594;28;20173;-82
2023/08/08 04:09:11;;;;;;;1.50;1.30;;;;;;;;;;5008661;28;20600;-82
2023/08/08 04:12:15;;;;;;;1.40;1.10;;;;;;;;;;4997288;28;20640;-82
2023/08/08 04:15:19;;;;;;;1.43;1.10;;;;;;;;;;4996719;28;20177;-82
2023/08/08 04:18:24;;;;;;;1.67;1.20;;;;;;;;;;5008335;28;20209;-82
2023/08/08 04:21:28;;;;;;;1.50;1.00;;;;;;;;;;5020563;28;20210;-81
2023/08/08 04:24:32;;;;;;;2.57;1.07;;;;;;;;;;4996897;28;20186;-81
2023/08/08 04:27:37;;;;;;;2.33;1.20;;;;;;;;;;4996182;28;20213;-81
2023/08/08 04:30:41;;;;;;;1.70;1.20;;;;;;;;;;5007934;28;20201;-84
2023/08/08 04:33:45;;;;;;;2.13;1.00;;;;;;;;;;4995425;28;20549;-82
2023/08/08 04:36:49;;;;;;;2.50;1.37;;;;;;;;;;4996662;28;20173;-81
2023/08/08 04:39:54;;;;;;;2.67;1.10;;;;;;;;;;4995106;28;20201;-82
2023/08/08 04:42:58;;;;;;;1.67;1.10;;;;;;;;;;5007162;28;20197;-81
2023/08/08 04:46:02;;;;;;;1.10;1.00;;;;;;;;;;4996593;28;20186;-81
2023/08/08 04:49:06;;;;;;;1.47;1.00;;;;;;;;;;5023080;28;20213;-82
2023/08/08 04:52:10;;;;;;;1.77;0.90;;;;;;;;;;5000935;28;20617;-82
2023/08/08 04:55:15;;;;;;;1.97;1.27;;;;;;;;;;5000174;28;20182;-82
2023/08/08 04:58:19;;;;;;;1.60;1.13;;;;;;;;;;5000190;28;20216;-82
2023/08/08 05:01:23;;;;;;;1.37;0.97;;;;;;;;;;4998343;28;20209;-82
2023/08/08 05:04:27;;;;;;;2.60;1.00;;;;;;;;;;4985051;28;20534;-81
2023/08/08 05:07:31;;;;;;;1.20;1.00;;;;;;;;;;4996072;28;20632;-82
2023/08/08 05:10:35;;;;;;;1.00;0.90;;;;;;;;;;5007284;28;20177;-81
2023/08/08 05:13:40;;;;;;;1.37;1.10;;;;;;;;;;5007503;28;20182;-81
2023/08/08 05:16:44;;;;;;;3.13;0.80;;;;;;;;;;4984682;28;20537;-81
2023/08/08 05:19:48;;;;;;;1.67;1.10;;;;;;;;;;4995236;28;20197;-81
2023/08/08 05:22:52;;;;;;;2.33;1.00;;;;;;;;;;5006802;28;20178;-81
2023/08/08 05:25:57;;;;;;;3.27;1.27;;;;;;;;;;4995167;28;20190;-81
2023/08/08 05:29:02;;;;;;;1.80;1.00;;;;;;;;;;5007038;28;20221;-82
2023/08/08 05:32:07;;;;;;;2.50;1.30;;;;;;;;;;4995731;28;20169;-82
2023/08/08 05:35:11;;;;;;;3.20;0.90;;;;;;;;;;4994753;28;20186;-81
2023/08/08 05:38:15;;;;;;;27.60;13.17;;;;;;;;;;4994780;28;20213;-82
2023/08/08 05:41:19;;;;;;;8.87;5.47;;;;;;;;;;4994635;28;20216;-82
2023/08/08 05:44:23;;;;;;;11.67;7.10;;;;;;;;;;4983500;28;20182;-82
2023/08/08 05:47:27;;;;;;;15.47;10.27;;;;;;;;;;4994386;28;20201;-82
2023/08/08 05:50:32;;;;;;;11.93;6.53;;;;;;;;;;4994350;28;20655;-82
2023/08/08 05:53:38;;;;;;;5.90;3.70;;;;;;;;;;5005937;28;20189;-82
2023/08/08 05:56:42;;;;;;;2.60;2.07;;;;;;;;;;4985406;28;20178;-81
2023/08/08 05:59:46;;;;;;;3.03;1.70;;;;;;;;;;4995053;28;20181;-81
2023/08/08 06:02:50;;;;;;;5.80;2.20;;;;;;;;;;4995686;28;20177;-80
2023/08/08 06:05:54;;;;;;;3.70;1.27;;;;;;;;;;5006361;28;20182;-80
2023/08/08 06:08:59;;;;;;;1.60;1.40;;;;;;;;;;4996168;28;20229;-81
2023/08/08 06:12:03;;;;;;;3.43;1.37;;;;;;;;;;4995079;28;20170;-81
2023/08/08 06:15:08;;;;;;;2.80;1.40;;;;;;;;;;4995642;28;20182;-81
2023/08/08 06:18:12;;;;;;;5.47;3.30;;;;;;;;;;4994728;28;20700;-81
2023/08/08 06:21:16;;;;;;;6.27;3.83;;;;;;;;;;4994874;28;20661;-80
2023/08/08 06:24:21;;;;;;;2.47;1.93;;;;;;;;;;4995322;28;20518;-80
2023/08/08 06:27:25;;;;;;;1.63;1.03;;;;;;;;;;4983556;28;20178;-81
2023/08/08 06:30:29;;;;;;;2.70;1.10;;;;;;;;;;4995024;28;20186;-81
2023/08/08 06:33:33;;;;;;;1.80;1.20;;;;;;;;;;5017839;28;20632;-81
2023/08/08 06:36:38;;;;;;;7.07;4.53;;;;;;;;;;4983040;28;20185;-81
2023/08/08 06:39:42;;;;;;;10.97;7.83;;;;;;;;;;5005436;28;20186;-81
2023/08/08 06:43:04;;;;;;;4.00;2.17;;;;;;;;;;5017693;28;20170;-80
2023/08/08 06:46:27;;;;;;;1.30;1.20;;;;;;;;;;5008321;28;20526;-81
2023/08/08 06:49:31;;;;;;;1.37;1.10;;;;;;;;;;5005595;28;20221;-81
2023/08/08 06:52:35;;;;;;;1.00;0.70;;;;;;;;;;5005588;28;20193;-81
2023/08/08 06:55:39;;;;;;;1.63;0.87;;;;;;;;;;4982809;28;20189;-81
2023/08/08 06:58:43;;;;;;;1.70;1.10;;;;;;;;;;5005855;28;20221;-81
2023/08/08 07:01:48;;;;;;;1.10;0.83;;;;;;;;;;4994396;28;20209;-81
2023/08/08 07:04:52;;;;;;;1.83;1.20;;;;;;;;;;4994530;28;20181;-81
2023/08/08 07:07:56;;;;;;;1.33;0.90;;;;;;;;;;4994708;28;20573;-81
2023/08/08 07:11:00;;;;;;;1.07;0.93;;;;;;;;;;4993844;28;20182;-81
2023/08/08 07:14:04;;;;;;;1.20;1.00;;;;;;;;;;5017568;28;20185;-81
2023/08/08 07:17:08;;;;;;;1.53;1.20;;;;;;;;;;5006831;28;20186;-81
2023/08/08 07:20:17;;;;;;;1.27;1.07;;;;;;;;;;4997317;28;20177;-81
2023/08/08 07:23:23;;;;;;;2.70;1.50;;;;;;;;;;4997182;28;20198;-81
2023/08/08 07:26:27;;;;;;;4.83;0.90;;;;;;;;;;5017814;28;20181;-81
2023/08/08 07:29:31;;;;;;;2.60;0.97;;;;;;;;;;4995569;28;20217;-81
2023/08/08 07:32:35;;;;;;;0.90;0.77;;;;;;;;;;4998889;28;20174;-81
2023/08/08 07:35:39;;;;;;;1.20;1.00;;;;;;;;;;4996034;28;20181;-81
2023/08/08 07:38:43;;;;;;;2.90;0.87;;;;;;;;;;4984441;28;20556;-81
2023/08/08 07:41:48;;;;;;;3.07;2.20;;;;;;;;;;5005849;28;20205;-81
2023/08/08 07:44:52;;;;;;;3.00;1.63;;;;;;;;;;5005706;28;20545;-81
2023/08/08 07:47:56;;;;;;;2.23;1.10;;;;;;;;;;5004947;28;20208;-81
2023/08/08 07:51:00;;;;;;;1.53;0.90;;;;;;;;;;4993743;28;20181;-81
2023/08/08 07:54:08;;;;;;;1.73;1.00;;;;;;;;;;4993802;28;20186;-81
2023/08/08 07:57:12;;;;;;;1.40;1.00;;;;;;;;;;5005247;28;20177;-81
2023/08/08 08:00:18;;;;;;;1.90;0.90;;;;;;;;;;5004877;28;20517;-81
2023/08/08 08:03:22;;;;;;;3.93;1.30;;;;;;;;;;5004990;28;20182;-81
2023/08/08 08:06:26;;;;;;;1.67;1.00;;;;;;;;;;5005158;28;20177;-81
2023/08/08 08:09:30;;;;;;;2.97;1.00;;;;;;;;;;4981301;28;20229;-81
2023/08/08 08:12:35;;;;;;;6.00;1.40;;;;;;;;;;4992732;28;20181;-81
2023/08/08 08:15:39;;;;;;;3.13;0.90;;;;;;;;;;4992916;28;20628;-81
2023/08/08 08:18:43;;;;;;;3.10;1.07;;;;;;;;;;4992803;28;20213;-81
2023/08/08 08:21:47;;;;;;;2.00;0.90;;;;;;;;;;5003192;28;20209;-81
2023/08/08 08:24:51;;;;;;;1.63;0.97;;;;;;;;;;5003809;28;20644;-81
2023/08/08 08:27:56;;;;;;;1.97;1.60;;;;;;;;;;4992344;28;20225;-81
2023/08/08 08:31:07;;;;;;;3.93;0.87;;;;;;;;;;5004611;28;20201;-81
2023/08/08 08:34:11;;;;;;;1.67;0.90;;;;;;;;;;4992919;28;20182;-81
2023/08/08 08:37:15;;;;;;;2.83;1.10;;;;;;;;;;4983025;28;20183;-81
2023/08/08 08:40:20;;;;;;;3.57;0.93;;;;;;;;;;4992360;28;20191;-81
2023/08/08 08:43:24;;;;;;;4.43;0.90;;;;;;;;;;5003701;28;20214;-81
2023/08/08 08:46:29;;;;;;;1.50;1.00;;;;;;;;;;4992221;28;20204;-81
2023/08/08 08:49:35;;;;;;;2.77;1.23;;;;;;;;;;4992399;28;20223;-81
2023/08/08 08:52:39;;;;;;;2.00;1.17;;;;;;;;;;4992999;28;20608;-81
2023/08/08 08:55:44;;;;;;;4.70;1.20;;;;;;;;;;5003873;28;20184;-81
2023/08/08 08:58:48;;;;;;;2.83;1.20;;;;;;;;;;4992869;28;20221;-81
2023/08/08 09:01:53;;;;;;;1.97;0.90;;;;;;;;;;5003965;28;20213;-81
2023/08/08 09:04:58;;;;;;;3.80;1.30;;;;;;;;;;5004232;28;20182;-81
2023/08/08 09:08:03;;;;;;;2.88;1.00;;;;;;;;;;5003398;28;20224;-81
2023/08/08 09:11:07;;;;;;;2.88;1.20;;;;;;;;;;5004170;28;20210;-81
2023/08/08 09:14:22;;;;;;;1.40;0.80;;;;;;;;;;5003793;28;20193;-81
2023/08/08 09:17:27;;;;;;;2.00;1.20;;;;;;;;;;5002864;28;20626;-82
2023/08/08 09:20:32;;;;;;;1.30;0.90;;;;;;;;;;4992460;28;20179;-81
2023/08/08 09:23:38;;;;;;;2.03;1.13;;;;;;;;;;4992418;28;20205;-81
2023/08/08 09:26:43;;;;;;;3.45;1.10;;;;;;;;;;4981396;28;20183;-81
2023/08/08 09:29:48;;;;;;;2.28;1.00;;;;;;;;;;4992744;28;20191;-81
2023/08/08 09:32:52;;;;;;;3.63;1.08;;;;;;;;;;5003599;28;20198;-81
2023/08/08 09:35:56;;;;;;;2.97;1.05;;;;;;;;;;5006429;28;20199;-81
2023/08/08 09:39:00;;;;;;;2.23;1.10;;;;;;;;;;4995002;28;20214;-81
2023/08/08 09:42:07;;;;;;;2.40;1.00;;;;;;;;;;5006505;28;20218;-81
2023/08/08 09:45:12;;;;;;;2.07;1.03;;;;;;;;;;5006812;28;20180;-81
2023/08/08 09:48:16;;;;;;;3.03;1.20;;;;;;;;;;4994727;28;20215;-81
2023/08/08 09:51:21;;;;;;;1.50;1.03;;;;;;;;;;5006646;28;20175;-81
2023/08/08 09:54:26;;;;;;;1.20;0.80;;;;;;;;;;4995079;28;20185;-82
2023/08/08 09:57:30;;;;;;;3.38;0.90;;;;;;;;;;5006396;28;20188;-81
2023/08/08 10:00:34;;;;;;;1.20;1.10;;;;;;;;;;5006580;28;20182;-82
2023/08/08 10:03:42;;;;;;;3.00;1.00;;;;;;;;;;4994960;28;20692;-81
2023/08/08 10:06:46;;;;;;;1.60;1.05;;;;;;;;;;4995214;28;20183;-81
2023/08/08 10:09:51;;;;;;;2.63;1.20;;;;;;;;;;4995303;28;20628;-81
2023/08/08 10:12:55;;;;;;;2.33;1.40;;;;;;;;;;4994738;28;20179;-81
2023/08/08 10:16:04;;;;;;;1.42;0.90;;;;;;;;;;5005639;28;20196;-81
2023/08/08 10:19:09;;;;;;;1.47;1.00;;;;;;;;;;5017800;28;20224;-81
2023/08/08 10:22:13;;;;;;;2.00;1.10;;;;;;;;;;4994505;28;20220;-81
2023/08/08 10:25:25;;;;;;;2.60;1.13;;;;;;;;;;5005796;28;20200;-81
2023/08/08 10:28:32;;;;;;;2.77;1.10;;;;;;;;;;4994874;28;20209;-81
2023/08/08 10:31:36;;;;;;;2.93;1.20;;;;;;;;;;4994145;28;20554;-81
2023/08/08 10:34:43;;;;;;;2.10;1.20;;;;;;;;;;5005200;28;20198;-81
2023/08/08 10:37:54;;;;;;;2.25;1.20;;;;;;;;;;5005482;28;20681;-82
2023/08/08 10:40:58;;;;;;;1.83;1.20;;;;;;;;;;4993571;28;20181;-81
2023/08/08 10:44:08;;;;;;;2.45;1.10;;;;;;;;;;5017347;28;20690;-81
2023/08/08 10:47:13;;;;;;;1.95;1.00;;;;;;;;;;5016890;28;20181;-81
2023/08/08 10:50:22;;;;;;;4.18;1.30;;;;;;;;;;4994565;28;20183;-81
2023/08/08 10:53:28;;;;;;;1.80;1.13;;;;;;;;;;4993885;28;20199;-81
2023/08/08 10:56:34;;;;;;;2.40;1.08;;;;;;;;;;5005337;28;20182;-81
2023/08/08 10:59:39;;;;;;;1.15;1.00;;;;;;;;;;4994278;28;20216;-82
2023/08/08 11:02:44;;;;;;;1.90;1.00;;;;;;;;;;5004847;28;20212;-81
2023/08/08 11:05:48;;;;;;;2.13;1.30;;;;;;;;;;5006105;28;20186;-81
2023/08/08 11:08:54;;;;;;;1.83;1.07;;;;;;;;;;5004107;28;20223;-81
2023/08/08 11:11:59;;;;;;;2.53;1.20;;;;;;;;;;5003661;28;20203;-81
2023/08/08 11:15:03;;;;;;;3.57;1.30;;;;;;;;;;4993048;28;20183;-81
2023/08/08 11:18:09;;;;;;;2.07;1.23;;;;;;;;;;5003675;28;20677;-81
2023/08/08 11:21:13;;;;;;;1.60;1.10;;;;;;;;;;5004060;28;20189;-81
2023/08/08 11:24:17;;;;;;;5.82;1.20;;;;;;;;;;4992223;28;20178;-81
2023/08/08 11:27:23;;;;;;;3.72;1.27;;;;;;;;;;5003518;28;20186;-81
2023/08/08 11:30:29;;;;;;;2.10;1.13;;;;;;;;;;4991820;28;20186;-81
2023/08/08 11:33:34;;;;;;;3.30;1.43;;;;;;;;;;5015399;28;20177;-81
2023/08/08 11:36:38;;;;;;;3.77;1.23;;;;;;;;;;4991853;28;20175;-81
2023/08/08 11:39:42;;;;;;;2.10;1.10;;;;;;;;;;4991019;28;20214;-82
2023/08/08 11:42:47;;;;;;;4.20;1.17;;;;;;;;;;4991476;28;20547;-82
2023/08/08 11:45:53;;;;;;;1.88;1.30;;;;;;;;;;5015041;28;20175;-82
2023/08/08 11:49:06;;;;;;;2.25;1.30;;;;;;;;;;4991830;28;20564;-82
2023/08/08 11:52:10;;;;;;;3.97;1.30;;;;;;;;;;4991679;28;20196;-82
2023/08/08 11:55:14;;;;;;;2.35;1.30;;;;;;;;;;4991162;28;20526;-82
2023/08/08 11:58:18;;;;;;;3.50;1.40;;;;;;;;;;4990155;28;20224;-82
2023/08/08 12:01:22;;;;;;;1.65;1.10;;;;;;;;;;4990783;28;20198;-82
2023/08/08 12:04:26;;;;;;;3.05;1.35;;;;;;;;;;5002287;28;20213;-83
2023/08/08 12:07:33;;;;;;;1.73;1.20;;;;;;;;;;5001902;28;20202;-82
2023/08/08 12:10:38;;;;;;;2.50;1.02;;;;;;;;;;5019372;22;20493;-79
2023/08/08 12:13:43;;;;;;;2.33;1.17;;;;;;;;;;5023597;28;20181;-79
2023/08/08 12:16:47;;;;;;;1.47;1.07;;;;;;;;;;5035312;28;20177;-79
2023/08/08 12:19:51;;;;;;;2.78;1.10;;;;;;;;;;5022982;28;20184;-79
2023/08/08 12:22:55;;;;;;;3.17;1.30;;;;;;;;;;5015194;28;20212;-79
2023/08/08 12:26:00;;;;;;;1.77;1.02;;;;;;;;;;5015256;28;20523;-79
2023/08/08 12:29:04;;;;;;;3.58;1.30;;;;;;;;;;4992607;28;20185;-79
2023/08/08 12:32:08;;;;;;;2.55;1.40;;;;;;;;;;5015310;28;20220;-79
2023/08/08 12:35:12;;;;;;;3.88;1.45;;;;;;;;;;4991933;28;20182;-79
2023/08/08 12:38:16;;;;;;;1.67;1.10;;;;;;;;;;4992028;28;20183;-79
2023/08/08 12:41:20;;;;;;;2.45;1.00;;;;;;;;;;5003397;28;20223;-79
2023/08/08 12:44:25;;;;;;;2.88;1.27;;;;;;;;;;5004337;28;20653;-79
2023/08/08 12:47:29;;;;;;;2.28;1.38;;;;;;;;;;5016354;28;20182;-79
2023/08/08 12:50:33;;;;;;;2.37;1.37;;;;;;;;;;5003878;28;20214;-79
2023/08/08 12:53:37;;;;;;;1.77;1.30;;;;;;;;;;4992788;28;20520;-79
2023/08/08 12:56:42;;;;;;;3.87;1.50;;;;;;;;;;5004450;28;20178;-79
2023/08/08 12:59:46;;;;;;;1.77;1.00;;;;;;;;;;5003999;28;20179;-79
2023/08/08 13:02:50;;;;;;;2.80;1.10;;;;;;;;;;5015108;28;20205;-79
2023/08/08 13:05:54;;;;;;;3.07;1.17;;;;;;;;;;5003247;28;20517;-79
2023/08/08 13:08:58;;;;;;;4.00;1.40;;;;;;;;;;5004968;28;20187;-79
2023/08/08 13:12:03;;;;;;;1.40;1.27;;;;;;;;;;5006411;28;20221;-79
2023/08/08 13:15:08;;;;;;;2.55;1.10;;;;;;;;;;5006886;28;20196;-79
2023/08/08 13:18:12;;;;;;;1.70;1.10;;;;;;;;;;4995790;28;20186;-79
2023/08/08 13:21:16;;;;;;;3.97;1.30;;;;;;;;;;5007302;28;20215;-79
2023/08/08 13:24:22;;;;;;;1.90;1.35;;;;;;;;;;5006409;28;20677;-79
2023/08/08 13:27:27;;;;;;;1.70;1.30;;;;;;;;;;4995625;28;20644;-79
2023/08/08 13:30:31;;;;;;;1.98;1.40;;;;;;;;;;5019054;28;20211;-79
2023/08/08 13:33:35;;;;;;;3.22;1.63;;;;;;;;;;5007161;28;20179;-79
2023/08/08 13:36:39;;;;;;;3.78;1.38;;;;;;;;;;4995337;28;20204;-79
2023/08/08 13:39:43;;;;;;;1.95;1.30;;;;;;;;;;5017435;28;20203;-79
2023/08/08 13:42:48;;;;;;;2.38;1.33;;;;;;;;;;5018910;28;20186;-80
2023/08/08 13:45:52;;;;;;;2.13;1.17;;;;;;;;;;5019315;28;20545;-79
2023/08/08 13:48:56;;;;;;;1.63;1.10;;;;;;;;;;5007580;28;20547;-79
2023/08/08 13:52:00;;;;;;;2.47;1.30;;;;;;;;;;4984592;28;20563;-79
2023/08/08 13:55:06;;;;;;;2.38;1.45;;;;;;;;;;5007469;28;20185;-79
2023/08/08 13:58:10;;;;;;;4.15;1.40;;;;;;;;;;5007501;28;20181;-79
2023/08/08 14:01:14;;;;;;;1.73;1.27;;;;;;;;;;5019191;28;20220;-79
2023/08/08 14:04:18;;;;;;;3.15;1.38;;;;;;;;;;5018055;28;20211;-79
2023/08/08 14:07:22;;;;;;;2.50;1.20;;;;;;;;;;5006598;28;20196;-79
2023/08/08 14:10:27;;;;;;;1.63;1.40;;;;;;;;;;5006315;28;20220;-80
2023/08/08 14:13:31;;;;;;;3.58;1.17;;;;;;;;;;4984506;28;20521;-80
2023/08/08 14:16:35;;;;;;;3.17;1.27;;;;;;;;;;5007009;28;20185;-80
2023/08/08 14:19:39;;;;;;;2.05;1.10;;;;;;;;;;5005554;28;20529;-80
2023/08/08 14:22:47;;;;;;;4.03;1.70;;;;;;;;;;5018458;28;20175;-79
2023/08/08 14:25:51;;;;;;;1.92;1.20;;;;;;;;;;5006272;28;20184;-80
2023/08/08 14:28:55;;;;;;;2.28;1.50;;;;;;;;;;5005455;28;20195;-80
2023/08/08 14:31:59;;;;;;;1.70;1.10;;;;;;;;;;4994889;28;20219;-79
2023/08/08 14:35:04;;;;;;;3.13;1.33;;;;;;;;;;5005825;28;20176;-79
2023/08/08 14:38:08;;;;;;;2.20;1.40;;;;;;;;;;5018493;28;20184;-79
2023/08/08 14:41:12;;;;;;;2.42;1.25;;;;;;;;;;5005840;28;20691;-79
2023/08/08 14:44:17;;;;;;;1.50;1.15;;;;;;;;;;5006009;28;20209;-80
2023/08/08 14:47:21;;;;;;;7.22;1.30;;;;;;;;;;5005964;28;20199;-80
2023/08/08 14:50:25;;;;;;;3.72;1.38;;;;;;;;;;5005533;28;20226;-79
2023/08/08 14:53:30;;;;;;;4.70;1.30;;;;;;;;;;5017945;28;20177;-79
2023/08/08 14:56:33;;;;;;;6.18;1.27;;;;;;;;;;5017585;28;20185;-80
2023/08/08 14:59:38;;;;;;;2.63;1.20;;;;;;;;;;4994606;28;20183;-79
2023/08/08 15:02:42;;;;;;;6.95;2.70;;;;;;;;;;5017299;28;20197;-79
2023/08/08 15:05:48;;;;;;;3.42;1.30;;;;;;;;;;5005622;28;20186;-79
2023/08/08 15:08:52;;;;;;;4.10;1.23;;;;;;;;;;5016643;28;20177;-80
2023/08/08 15:11:56;;;;;;;2.03;1.48;;;;;;;;;;4993412;28;20225;-80
2023/08/08 15:15:01;;;;;;;2.63;1.60;;;;;;;;;;4993691;28;20536;-79
2023/08/08 15:18:06;;;;;;;2.83;1.20;;;;;;;;;;4983473;28;20178;-79
2023/08/08 15:21:10;;;;;;;4.70;1.33;;;;;;;;;;5004309;28;20225;-79
2023/08/08 15:24:15;;;;;;;2.03;1.40;;;;;;;;;;5005081;28;20550;-79
2023/08/08 15:27:19;;;;;;;3.23;1.20;;;;;;;;;;5005075;28;20374;-79
2023/08/08 15:30:23;;;;;;;2.00;1.40;;;;;;;;;;4993711;28;20196;-79
2023/08/08 15:33:27;;;;;;;3.07;1.30;;;;;;;;;;5005043;28;20521;-79
2023/08/08 15:36:31;;;;;;;3.67;1.30;;;;;;;;;;5004781;28;20191;-79
2023/08/08 15:39:35;;;;;;;2.60;1.50;;;;;;;;;;4994324;28;20184;-79
2023/08/08 15:42:40;;;;;;;2.87;1.40;;;;;;;;;;5004655;28;20186;-79
2023/08/08 15:45:44;;;;;;;2.60;1.47;;;;;;;;;;4993547;28;20183;-79
2023/08/08 15:48:48;;;;;;;2.73;1.43;;;;;;;;;;4993646;28;20181;-79
2023/08/08 15:51:56;;;;;;;3.23;1.50;;;;;;;;;;5004356;28;20211;-79
2023/08/08 15:55:00;;;;;;;2.37;1.60;;;;;;;;;;5004584;28;20187;-79
2023/08/08 15:58:04;;;;;;;1.87;1.20;;;;;;;;;;4993363;28;20630;-79
2023/08/08 16:01:08;;;;;;;3.90;1.30;;;;;;;;;;5003963;28;20228;-79
2023/08/08 16:04:14;;;;;;;4.30;1.60;;;;;;;;;;5004297;28;20218;-79
2023/08/08 16:07:19;;;;;;;1.30;1.03;;;;;;;;;;5004656;28;20185;-79
2023/08/08 16:10:23;;;;;;;2.40;1.37;;;;;;;;;;5004598;28;20179;-79
2023/08/08 16:13:27;;;;;;;4.07;1.30;;;;;;;;;;4993454;28;20190;-79
2023/08/08 16:16:32;;;;;;;2.30;1.10;;;;;;;;;;5016918;28;20184;-79
2023/08/08 16:19:36;;;;;;;2.20;1.40;;;;;;;;;;5004482;28;20183;-79
2023/08/08 16:22:40;;;;;;;1.93;1.37;;;;;;;;;;5016036;28;20202;-79
2023/08/08 16:25:44;;;;;;;2.97;1.43;;;;;;;;;;5003865;28;20219;-79
2023/08/08 16:28:48;;;;;;;1.87;1.30;;;;;;;;;;5004786;28;20178;-79
2023/08/08 16:31:53;;;;;;;2.80;2.20;;;;;;;;;;5016723;28;20218;-79
2023/08/08 16:34:57;;;;;;;2.27;1.27;;;;;;;;;;5016177;28;20621;-79
2023/08/08 16:38:01;;;;;;;1.70;1.40;;;;;;;;;;5003577;28;20179;-79
2023/08/08 16:41:05;;;;;;;3.13;1.57;;;;;;;;;;5003945;28;20221;-79
2023/08/08 16:44:09;;;;;;;4.23;1.67;;;;;;;;;;5006321;28;20205;-79
2023/08/08 16:47:14;;;;;;;2.80;1.43;;;;;;;;;;5007965;28;20182;-79
2023/08/08 16:50:17;;;;;;;2.87;1.60;;;;;;;;;;5008387;28;20173;-79
2023/08/08 16:53:22;;;;;;;2.73;1.50;;;;;;;;;;4996472;28;20174;-79
2023/08/08 16:56:27;;;;;;;1.30;1.20;;;;;;;;;;4996736;28;20174;-79
2023/08/08 16:59:31;;;;;;;3.40;1.43;;;;;;;;;;5019739;28;20182;-79
2023/08/08 17:02:36;;;;;;;3.20;1.50;;;;;;;;;;4996318;28;20186;-79
2023/08/08 17:05:40;;;;;;;2.40;1.27;;;;;;;;;;5019715;28;20206;-79
2023/08/08 17:08:45;;;;;;;2.43;1.70;;;;;;;;;;5007716;28;20173;-78
2023/08/08 17:11:49;;;;;;;4.33;1.40;;;;;;;;;;5007311;28;20228;-79
2023/08/08 17:14:54;;;;;;;2.27;1.50;;;;;;;;;;4996085;28;20182;-79
2023/08/08 17:17:58;;;;;;;2.20;1.50;;;;;;;;;;5007222;28;20186;-79
2023/08/08 17:21:03;;;;;;;3.47;1.60;;;;;;;;;;5007182;28;20213;-78
2023/08/08 17:24:07;;;;;;;1.53;1.27;;;;;;;;;;4994694;28;20209;-79
2023/08/08 17:27:11;;;;;;;3.83;1.47;;;;;;;;;;5005711;28;20193;-79
2023/08/08 17:30:15;;;;;;;3.17;1.47;;;;;;;;;;5006536;28;20198;-79
2023/08/08 17:33:19;;;;;;;2.53;1.40;;;;;;;;;;5006633;28;20189;-79
2023/08/08 17:36:24;;;;;;;2.37;1.40;;;;;;;;;;5018927;28;20181;-79
2023/08/08 17:39:28;;;;;;;4.40;1.17;;;;;;;;;;5006905;28;20518;-79
2023/08/08 17:42:32;;;;;;;2.00;1.40;;;;;;;;;;5006708;28;20177;-79
2023/08/08 17:45:35;;;;;;;2.50;1.40;;;;;;;;;;5006521;28;20205;-79
2023/08/08 17:48:40;;;;;;;1.50;1.30;;;;;;;;;;5006880;28;20182;-79
2023/08/08 17:51:44;;;;;;;1.33;1.10;;;;;;;;;;4995257;28;20687;-79
2023/08/08 17:54:48;;;;;;;2.37;1.37;;;;;;;;;;5005216;28;20177;-79
2023/08/08 17:57:52;;;;;;;2.63;1.50;;;;;;;;;;4984007;28;20201;-79
2023/08/08 18:00:56;;;;;;;2.47;1.60;;;;;;;;;;5007042;28;20217;-79
2023/08/08 18:04:00;;;;;;;3.53;1.10;;;;;;;;;;5006896;28;20189;-79
2023/08/08 18:07:05;;;;;;;2.03;1.17;;;;;;;;;;4996091;28;20185;-79
2023/08/08 18:10:09;;;;;;;20.47;11.17;;;;;;;;;;5007185;28;20182;-78
2023/08/08 18:13:13;;;;;;;9.73;6.13;;;;;;;;;;5047982;23;20244;-79
2023/08/08 18:16:17;;;;;;;3.67;2.03;;;;;;;;;;5036349;28;20172;-81
2023/08/08 18:19:22;;;;;;;2.57;1.03;;;;;;;;;;5024881;28;20176;-81
2023/08/08 18:22:26;;;;;;;1.50;1.17;;;;;;;;;;5035794;28;20217;-81
2023/08/08 18:25:30;;;;;;;3.00;1.30;;;;;;;;;;5046845;28;20208;-81
2023/08/08 18:28:34;;;;;;;2.93;1.10;;;;;;;;;;5024400;28;20620;-81